Tres Isletas, Argentina
Current Conditions -  °F | °C
As of 11:00 PM on Friday 28 Nov 2014 (Local Time) from SARE Reporting Station
Clear Clear  
Wind Chill: 77°   Ceiling: Unl
Heat Index: 79°   Visibility: 6mi
Dew Point: 66°   Wind: 6mph
Humidity: 69%   Direction: 90°E
Pressure: 29.8"   Gusts: NA
Location:  26.35°S, 60.43°W
Report Text: SARE 290200Z 09005KT CAVOK 25/19 Q1009
Loading
Personal Weather Stations






























Interactive Weather Map New forecast layout! Learn more

10-Day Weather Forecast

Advertisements
Track Severe Weather on mobile